<?xml version="1.0" encoding="UTF-8" standalone="no" ?>
<gpx xmlns="http://www.topografix.com/GPX/1/1" creator="www.cicloide.com" version="1.1" xmlns:xsi="http://www.w3.org/2001/XMLSchema-instance" xsi:schemaLocation="http://www.topografix.com/GPX/1/1 http://www.topografix.com/GPX/1/1/gpx.xsd">
  <trk>
    <name>www.cicloide.com 17027</name>
    <desc>www.cicloide.com 17027</desc>
    <trkseg>
      <trkpt lat="41.604625000" lon="2.539377000">
        <ele>113.70</ele>
        <time>2014-02-16T07:53:02Z</time>
      </trkpt>
      <trkpt lat="41.604540000" lon="2.539415000">
        <ele>114.60</ele>
        <time>2014-02-16T07:56:29Z</time>
      </trkpt>
      <trkpt lat="41.604437000" lon="2.539647000">
        <ele>114.90</ele>
        <time>2014-02-16T07:56:42Z</time>
      </trkpt>
      <trkpt lat="41.604438000" lon="2.539790000">
        <ele>115.10</ele>
        <time>2014-02-16T07:56:45Z</time>
      </trkpt>
      <trkpt lat="41.604769000" lon="2.540229000">
        <ele>114.20</ele>
        <time>2014-02-16T07:56:59Z</time>
      </trkpt>
      <trkpt lat="41.605687000" lon="2.540380000">
        <ele>118.60</ele>
        <time>2014-02-16T07:57:41Z</time>
      </trkpt>
      <trkpt lat="41.605805000" lon="2.540247000">
        <ele>117.70</ele>
        <time>2014-02-16T07:59:14Z</time>
      </trkpt>
      <trkpt lat="41.605737000" lon="2.540248000">
        <ele>117.40</ele>
        <time>2014-02-16T08:00:54Z</time>
      </trkpt>
      <trkpt lat="41.605767000" lon="2.540290000">
        <ele>116.30</ele>
        <time>2014-02-16T08:04:25Z</time>
      </trkpt>
      <trkpt lat="41.604840000" lon="2.540204000">
        <ele>113.90</ele>
        <time>2014-02-16T08:05:05Z</time>
      </trkpt>
      <trkpt lat="41.604737000" lon="2.540065000">
        <ele>113.40</ele>
        <time>2014-02-16T08:05:10Z</time>
      </trkpt>
      <trkpt lat="41.604448000" lon="2.539898000">
        <ele>111.90</ele>
        <time>2014-02-16T08:05:19Z</time>
      </trkpt>
      <trkpt lat="41.602943000" lon="2.540930000">
        <ele>107.60</ele>
        <time>2014-02-16T08:05:59Z</time>
      </trkpt>
      <trkpt lat="41.602173000" lon="2.541212000">
        <ele>104.40</ele>
        <time>2014-02-16T08:06:12Z</time>
      </trkpt>
      <trkpt lat="41.601592000" lon="2.541285000">
        <ele>101.50</ele>
        <time>2014-02-16T08:06:24Z</time>
      </trkpt>
      <trkpt lat="41.601452000" lon="2.541402000">
        <ele>100.20</ele>
        <time>2014-02-16T08:06:28Z</time>
      </trkpt>
      <trkpt lat="41.600537000" lon="2.541600000">
        <ele>98.90</ele>
        <time>2014-02-16T08:06:58Z</time>
      </trkpt>
      <trkpt lat="41.600332000" lon="2.541577000">
        <ele>99.10</ele>
        <time>2014-02-16T08:07:03Z</time>
      </trkpt>
      <trkpt lat="41.599410000" lon="2.540752000">
        <ele>107.70</ele>
        <time>2014-02-16T08:07:53Z</time>
      </trkpt>
      <trkpt lat="41.599427000" lon="2.540588000">
        <ele>108.80</ele>
        <time>2014-02-16T08:08:01Z</time>
      </trkpt>
      <trkpt lat="41.599493000" lon="2.540560000">
        <ele>109.70</ele>
        <time>2014-02-16T08:08:07Z</time>
      </trkpt>
      <trkpt lat="41.599815000" lon="2.540839000">
        <ele>114.70</ele>
        <time>2014-02-16T08:08:40Z</time>
      </trkpt>
      <trkpt lat="41.599858000" lon="2.540804000">
        <ele>115.50</ele>
        <time>2014-02-16T08:08:44Z</time>
      </trkpt>
      <trkpt lat="41.599657000" lon="2.540562000">
        <ele>117.70</ele>
        <time>2014-02-16T08:09:02Z</time>
      </trkpt>
      <trkpt lat="41.599548000" lon="2.539558000">
        <ele>122.10</ele>
        <time>2014-02-16T08:09:49Z</time>
      </trkpt>
      <trkpt lat="41.599877000" lon="2.538577000">
        <ele>131.50</ele>
        <time>2014-02-16T08:10:45Z</time>
      </trkpt>
      <trkpt lat="41.600388000" lon="2.537785000">
        <ele>142.00</ele>
        <time>2014-02-16T08:11:45Z</time>
      </trkpt>
      <trkpt lat="41.600740000" lon="2.536888000">
        <ele>151.30</ele>
        <time>2014-02-16T08:12:39Z</time>
      </trkpt>
      <trkpt lat="41.600725000" lon="2.536038000">
        <ele>150.60</ele>
        <time>2014-02-16T08:13:06Z</time>
      </trkpt>
      <trkpt lat="41.600498000" lon="2.535902000">
        <ele>151.90</ele>
        <time>2014-02-16T08:13:24Z</time>
      </trkpt>
      <trkpt lat="41.600330000" lon="2.535933000">
        <ele>154.10</ele>
        <time>2014-02-16T08:13:38Z</time>
      </trkpt>
      <trkpt lat="41.599535000" lon="2.536392000">
        <ele>158.00</ele>
        <time>2014-02-16T08:14:24Z</time>
      </trkpt>
      <trkpt lat="41.599587000" lon="2.536168000">
        <ele>159.90</ele>
        <time>2014-02-16T08:14:38Z</time>
      </trkpt>
      <trkpt lat="41.600297000" lon="2.535232000">
        <ele>167.80</ele>
        <time>2014-02-16T08:15:44Z</time>
      </trkpt>
      <trkpt lat="41.600272000" lon="2.535175000">
        <ele>167.50</ele>
        <time>2014-02-16T08:15:48Z</time>
      </trkpt>
      <trkpt lat="41.599594000" lon="2.535582000">
        <ele>175.90</ele>
        <time>2014-02-16T08:16:44Z</time>
      </trkpt>
      <trkpt lat="41.599283000" lon="2.535575000">
        <ele>178.10</ele>
        <time>2014-02-16T08:17:05Z</time>
      </trkpt>
      <trkpt lat="41.599250000" lon="2.535272000">
        <ele>182.30</ele>
        <time>2014-02-16T08:17:26Z</time>
      </trkpt>
      <trkpt lat="41.599679000" lon="2.534594000">
        <ele>190.80</ele>
        <time>2014-02-16T08:18:17Z</time>
      </trkpt>
      <trkpt lat="41.599675000" lon="2.534437000">
        <ele>191.70</ele>
        <time>2014-02-16T08:18:27Z</time>
      </trkpt>
      <trkpt lat="41.599215000" lon="2.534392000">
        <ele>198.80</ele>
        <time>2014-02-16T08:19:09Z</time>
      </trkpt>
      <trkpt lat="41.599088000" lon="2.533983000">
        <ele>203.50</ele>
        <time>2014-02-16T08:19:36Z</time>
      </trkpt>
      <trkpt lat="41.598913000" lon="2.533688000">
        <ele>209.20</ele>
        <time>2014-02-16T08:20:03Z</time>
      </trkpt>
      <trkpt lat="41.598830000" lon="2.533235000">
        <ele>212.90</ele>
        <time>2014-02-16T08:20:30Z</time>
      </trkpt>
      <trkpt lat="41.598899000" lon="2.533077000">
        <ele>215.80</ele>
        <time>2014-02-16T08:20:38Z</time>
      </trkpt>
      <trkpt lat="41.598877000" lon="2.532770000">
        <ele>219.50</ele>
        <time>2014-02-16T08:20:54Z</time>
      </trkpt>
      <trkpt lat="41.598630000" lon="2.532652000">
        <ele>222.50</ele>
        <time>2014-02-16T08:21:14Z</time>
      </trkpt>
      <trkpt lat="41.598540000" lon="2.532360000">
        <ele>225.30</ele>
        <time>2014-02-16T08:21:34Z</time>
      </trkpt>
      <trkpt lat="41.598559000" lon="2.531788000">
        <ele>227.00</ele>
        <time>2014-02-16T08:21:59Z</time>
      </trkpt>
      <trkpt lat="41.598300000" lon="2.531169000">
        <ele>226.10</ele>
        <time>2014-02-16T08:22:16Z</time>
      </trkpt>
      <trkpt lat="41.597632000" lon="2.530667000">
        <ele>215.80</ele>
        <time>2014-02-16T08:22:30Z</time>
      </trkpt>
      <trkpt lat="41.597355000" lon="2.530772000">
        <ele>212.40</ele>
        <time>2014-02-16T08:22:37Z</time>
      </trkpt>
      <trkpt lat="41.597130000" lon="2.530977000">
        <ele>212.60</ele>
        <time>2014-02-16T08:22:47Z</time>
      </trkpt>
      <trkpt lat="41.596915000" lon="2.530995000">
        <ele>214.10</ele>
        <time>2014-02-16T08:22:58Z</time>
      </trkpt>
      <trkpt lat="41.596625000" lon="2.531229000">
        <ele>215.60</ele>
        <time>2014-02-16T08:23:08Z</time>
      </trkpt>
      <trkpt lat="41.596335000" lon="2.531270000">
        <ele>215.50</ele>
        <time>2014-02-16T08:23:16Z</time>
      </trkpt>
      <trkpt lat="41.595492000" lon="2.531010000">
        <ele>212.70</ele>
        <time>2014-02-16T08:23:34Z</time>
      </trkpt>
      <trkpt lat="41.595232000" lon="2.531150000">
        <ele>211.30</ele>
        <time>2014-02-16T08:23:39Z</time>
      </trkpt>
      <trkpt lat="41.595045000" lon="2.531107000">
        <ele>210.00</ele>
        <time>2014-02-16T08:23:43Z</time>
      </trkpt>
      <trkpt lat="41.594860000" lon="2.530910000">
        <ele>210.90</ele>
        <time>2014-02-16T08:23:49Z</time>
      </trkpt>
      <trkpt lat="41.594759000" lon="2.530455000">
        <ele>210.00</ele>
        <time>2014-02-16T08:23:57Z</time>
      </trkpt>
      <trkpt lat="41.594693000" lon="2.530405000">
        <ele>209.10</ele>
        <time>2014-02-16T08:23:59Z</time>
      </trkpt>
      <trkpt lat="41.594362000" lon="2.530457000">
        <ele>207.40</ele>
        <time>2014-02-16T08:24:05Z</time>
      </trkpt>
      <trkpt lat="41.593877000" lon="2.530255000">
        <ele>203.50</ele>
        <time>2014-02-16T08:24:16Z</time>
      </trkpt>
      <trkpt lat="41.593805000" lon="2.530104000">
        <ele>203.40</ele>
        <time>2014-02-16T08:24:21Z</time>
      </trkpt>
      <trkpt lat="41.593527000" lon="2.530090000">
        <ele>201.80</ele>
        <time>2014-02-16T08:24:31Z</time>
      </trkpt>
      <trkpt lat="41.593227000" lon="2.529948000">
        <ele>195.80</ele>
        <time>2014-02-16T08:24:44Z</time>
      </trkpt>
      <trkpt lat="41.593102000" lon="2.530025000">
        <ele>193.20</ele>
        <time>2014-02-16T08:24:51Z</time>
      </trkpt>
      <trkpt lat="41.593037000" lon="2.529898000">
        <ele>191.90</ele>
        <time>2014-02-16T08:24:57Z</time>
      </trkpt>
      <trkpt lat="41.592473000" lon="2.529547000">
        <ele>188.60</ele>
        <time>2014-02-16T08:25:18Z</time>
      </trkpt>
      <trkpt lat="41.592172000" lon="2.529018000">
        <ele>190.50</ele>
        <time>2014-02-16T08:25:40Z</time>
      </trkpt>
      <trkpt lat="41.592017000" lon="2.529047000">
        <ele>192.00</ele>
        <time>2014-02-16T08:25:49Z</time>
      </trkpt>
      <trkpt lat="41.591930000" lon="2.528730000">
        <ele>195.70</ele>
        <time>2014-02-16T08:26:04Z</time>
      </trkpt>
      <trkpt lat="41.591660000" lon="2.528660000">
        <ele>199.00</ele>
        <time>2014-02-16T08:26:19Z</time>
      </trkpt>
      <trkpt lat="41.591217000" lon="2.528018000">
        <ele>201.10</ele>
        <time>2014-02-16T08:26:49Z</time>
      </trkpt>
      <trkpt lat="41.591013000" lon="2.527877000">
        <ele>201.60</ele>
        <time>2014-02-16T08:26:59Z</time>
      </trkpt>
      <trkpt lat="41.590764000" lon="2.527125000">
        <ele>201.30</ele>
        <time>2014-02-16T08:27:24Z</time>
      </trkpt>
      <trkpt lat="41.591200000" lon="2.526774000">
        <ele>199.50</ele>
        <time>2014-02-16T08:27:50Z</time>
      </trkpt>
      <trkpt lat="41.591277000" lon="2.526488000">
        <ele>197.00</ele>
        <time>2014-02-16T08:27:59Z</time>
      </trkpt>
      <trkpt lat="41.591394000" lon="2.526372000">
        <ele>195.40</ele>
        <time>2014-02-16T08:28:03Z</time>
      </trkpt>
      <trkpt lat="41.591537000" lon="2.526357000">
        <ele>193.40</ele>
        <time>2014-02-16T08:28:06Z</time>
      </trkpt>
      <trkpt lat="41.591890000" lon="2.527322000">
        <ele>186.70</ele>
        <time>2014-02-16T08:28:26Z</time>
      </trkpt>
      <trkpt lat="41.592050000" lon="2.527367000">
        <ele>185.50</ele>
        <time>2014-02-16T08:28:31Z</time>
      </trkpt>
      <trkpt lat="41.592457000" lon="2.527092000">
        <ele>187.20</ele>
        <time>2014-02-16T08:28:43Z</time>
      </trkpt>
      <trkpt lat="41.592464000" lon="2.527012000">
        <ele>187.00</ele>
        <time>2014-02-16T08:28:45Z</time>
      </trkpt>
      <trkpt lat="41.592162000" lon="2.527087000">
        <ele>182.30</ele>
        <time>2014-02-16T08:28:55Z</time>
      </trkpt>
      <trkpt lat="41.592045000" lon="2.526714000">
        <ele>176.90</ele>
        <time>2014-02-16T08:29:04Z</time>
      </trkpt>
      <trkpt lat="41.592089000" lon="2.525955000">
        <ele>172.40</ele>
        <time>2014-02-16T08:29:15Z</time>
      </trkpt>
      <trkpt lat="41.591945000" lon="2.525298000">
        <ele>166.30</ele>
        <time>2014-02-16T08:29:25Z</time>
      </trkpt>
      <trkpt lat="41.591402000" lon="2.525233000">
        <ele>160.90</ele>
        <time>2014-02-16T08:29:45Z</time>
      </trkpt>
      <trkpt lat="41.591165000" lon="2.525350000">
        <ele>162.20</ele>
        <time>2014-02-16T08:29:55Z</time>
      </trkpt>
      <trkpt lat="41.590838000" lon="2.525230000">
        <ele>165.00</ele>
        <time>2014-02-16T08:30:10Z</time>
      </trkpt>
      <trkpt lat="41.590628000" lon="2.525283000">
        <ele>166.40</ele>
        <time>2014-02-16T08:30:18Z</time>
      </trkpt>
      <trkpt lat="41.590244000" lon="2.525595000">
        <ele>164.30</ele>
        <time>2014-02-16T08:30:30Z</time>
      </trkpt>
      <trkpt lat="41.589865000" lon="2.524803000">
        <ele>159.50</ele>
        <time>2014-02-16T08:30:48Z</time>
      </trkpt>
      <trkpt lat="41.589585000" lon="2.524373000">
        <ele>155.60</ele>
        <time>2014-02-16T08:30:57Z</time>
      </trkpt>
      <trkpt lat="41.589473000" lon="2.524315000">
        <ele>153.90</ele>
        <time>2014-02-16T08:31:00Z</time>
      </trkpt>
      <trkpt lat="41.589375000" lon="2.524360000">
        <ele>152.80</ele>
        <time>2014-02-16T08:31:03Z</time>
      </trkpt>
      <trkpt lat="41.588957000" lon="2.524942000">
        <ele>153.40</ele>
        <time>2014-02-16T08:31:23Z</time>
      </trkpt>
      <trkpt lat="41.588870000" lon="2.525535000">
        <ele>157.70</ele>
        <time>2014-02-16T08:31:46Z</time>
      </trkpt>
      <trkpt lat="41.588905000" lon="2.525787000">
        <ele>159.80</ele>
        <time>2014-02-16T08:31:56Z</time>
      </trkpt>
      <trkpt lat="41.588637000" lon="2.526268000">
        <ele>160.60</ele>
        <time>2014-02-16T08:32:28Z</time>
      </trkpt>
      <trkpt lat="41.588652000" lon="2.526763000">
        <ele>163.70</ele>
        <time>2014-02-16T08:32:50Z</time>
      </trkpt>
      <trkpt lat="41.588800000" lon="2.527505000">
        <ele>168.90</ele>
        <time>2014-02-16T08:33:22Z</time>
      </trkpt>
      <trkpt lat="41.588722000" lon="2.527613000">
        <ele>170.00</ele>
        <time>2014-02-16T08:33:27Z</time>
      </trkpt>
      <trkpt lat="41.588442000" lon="2.527630000">
        <ele>167.40</ele>
        <time>2014-02-16T08:33:46Z</time>
      </trkpt>
      <trkpt lat="41.588023000" lon="2.527357000">
        <ele>164.70</ele>
        <time>2014-02-16T08:33:59Z</time>
      </trkpt>
      <trkpt lat="41.587635000" lon="2.526907000">
        <ele>162.90</ele>
        <time>2014-02-16T08:34:13Z</time>
      </trkpt>
      <trkpt lat="41.587542000" lon="2.526452000">
        <ele>164.40</ele>
        <time>2014-02-16T08:34:28Z</time>
      </trkpt>
      <trkpt lat="41.587450000" lon="2.526373000">
        <ele>164.70</ele>
        <time>2014-02-16T08:34:34Z</time>
      </trkpt>
      <trkpt lat="41.587165000" lon="2.526347000">
        <ele>166.70</ele>
        <time>2014-02-16T08:34:47Z</time>
      </trkpt>
      <trkpt lat="41.587043000" lon="2.526143000">
        <ele>166.10</ele>
        <time>2014-02-16T08:34:56Z</time>
      </trkpt>
      <trkpt lat="41.587085000" lon="2.525957000">
        <ele>166.60</ele>
        <time>2014-02-16T08:35:02Z</time>
      </trkpt>
      <trkpt lat="41.587415000" lon="2.525580000">
        <ele>165.00</ele>
        <time>2014-02-16T08:35:15Z</time>
      </trkpt>
      <trkpt lat="41.587514000" lon="2.525330000">
        <ele>164.00</ele>
        <time>2014-02-16T08:35:20Z</time>
      </trkpt>
      <trkpt lat="41.587473000" lon="2.525052000">
        <ele>161.50</ele>
        <time>2014-02-16T08:35:25Z</time>
      </trkpt>
      <trkpt lat="41.587087000" lon="2.524872000">
        <ele>157.10</ele>
        <time>2014-02-16T08:35:33Z</time>
      </trkpt>
      <trkpt lat="41.586283000" lon="2.525430000">
        <ele>156.00</ele>
        <time>2014-02-16T08:35:58Z</time>
      </trkpt>
      <trkpt lat="41.585335000" lon="2.525117000">
        <ele>152.10</ele>
        <time>2014-02-16T08:36:21Z</time>
      </trkpt>
      <trkpt lat="41.584395000" lon="2.525455000">
        <ele>146.00</ele>
        <time>2014-02-16T08:36:43Z</time>
      </trkpt>
      <trkpt lat="41.583497000" lon="2.525962000">
        <ele>140.80</ele>
        <time>2014-02-16T08:37:00Z</time>
      </trkpt>
      <trkpt lat="41.583147000" lon="2.526075000">
        <ele>138.10</ele>
        <time>2014-02-16T08:37:05Z</time>
      </trkpt>
      <trkpt lat="41.582633000" lon="2.526085000">
        <ele>132.90</ele>
        <time>2014-02-16T08:37:12Z</time>
      </trkpt>
      <trkpt lat="41.582435000" lon="2.525897000">
        <ele>130.90</ele>
        <time>2014-02-16T08:37:16Z</time>
      </trkpt>
      <trkpt lat="41.582282000" lon="2.525419000">
        <ele>127.70</ele>
        <time>2014-02-16T08:37:22Z</time>
      </trkpt>
      <trkpt lat="41.582128000" lon="2.525340000">
        <ele>125.60</ele>
        <time>2014-02-16T08:37:26Z</time>
      </trkpt>
      <trkpt lat="41.581658000" lon="2.526197000">
        <ele>122.10</ele>
        <time>2014-02-16T08:37:54Z</time>
      </trkpt>
      <trkpt lat="41.581410000" lon="2.526340000">
        <ele>119.50</ele>
        <time>2014-02-16T08:38:02Z</time>
      </trkpt>
      <trkpt lat="41.581398000" lon="2.526107000">
        <ele>116.10</ele>
        <time>2014-02-16T08:38:12Z</time>
      </trkpt>
      <trkpt lat="41.581585000" lon="2.525677000">
        <ele>111.70</ele>
        <time>2014-02-16T08:38:23Z</time>
      </trkpt>
      <trkpt lat="41.581400000" lon="2.525535000">
        <ele>110.40</ele>
        <time>2014-02-16T08:38:29Z</time>
      </trkpt>
      <trkpt lat="41.580798000" lon="2.525670000">
        <ele>104.60</ele>
        <time>2014-02-16T08:38:46Z</time>
      </trkpt>
      <trkpt lat="41.580108000" lon="2.525668000">
        <ele>107.80</ele>
        <time>2014-02-16T08:39:19Z</time>
      </trkpt>
      <trkpt lat="41.579360000" lon="2.526182000">
        <ele>108.80</ele>
        <time>2014-02-16T08:39:46Z</time>
      </trkpt>
      <trkpt lat="41.579125000" lon="2.526200000">
        <ele>109.30</ele>
        <time>2014-02-16T08:39:54Z</time>
      </trkpt>
      <trkpt lat="41.578767000" lon="2.526525000">
        <ele>109.40</ele>
        <time>2014-02-16T08:40:09Z</time>
      </trkpt>
      <trkpt lat="41.578522000" lon="2.526518000">
        <ele>108.50</ele>
        <time>2014-02-16T08:40:27Z</time>
      </trkpt>
      <trkpt lat="41.577334000" lon="2.527035000">
        <ele>102.60</ele>
        <time>2014-02-16T08:40:59Z</time>
      </trkpt>
      <trkpt lat="41.576965000" lon="2.527034000">
        <ele>97.30</ele>
        <time>2014-02-16T08:41:09Z</time>
      </trkpt>
      <trkpt lat="41.576754000" lon="2.526472000">
        <ele>93.20</ele>
        <time>2014-02-16T08:41:25Z</time>
      </trkpt>
      <trkpt lat="41.576407000" lon="2.526539000">
        <ele>90.10</ele>
        <time>2014-02-16T08:41:36Z</time>
      </trkpt>
      <trkpt lat="41.576384000" lon="2.526430000">
        <ele>88.10</ele>
        <time>2014-02-16T08:41:39Z</time>
      </trkpt>
      <trkpt lat="41.576832000" lon="2.525927000">
        <ele>82.50</ele>
        <time>2014-02-16T08:41:52Z</time>
      </trkpt>
      <trkpt lat="41.576785000" lon="2.525860000">
        <ele>81.80</ele>
        <time>2014-02-16T08:41:54Z</time>
      </trkpt>
      <trkpt lat="41.576507000" lon="2.525888000">
        <ele>79.00</ele>
        <time>2014-02-16T08:42:00Z</time>
      </trkpt>
      <trkpt lat="41.576197000" lon="2.525798000">
        <ele>73.50</ele>
        <time>2014-02-16T08:42:07Z</time>
      </trkpt>
      <trkpt lat="41.575678000" lon="2.526143000">
        <ele>66.00</ele>
        <time>2014-02-16T08:42:25Z</time>
      </trkpt>
      <trkpt lat="41.575650000" lon="2.526050000">
        <ele>64.80</ele>
        <time>2014-02-16T08:42:28Z</time>
      </trkpt>
      <trkpt lat="41.576290000" lon="2.525437000">
        <ele>56.50</ele>
        <time>2014-02-16T08:42:44Z</time>
      </trkpt>
      <trkpt lat="41.576653000" lon="2.525320000">
        <ele>53.40</ele>
        <time>2014-02-16T08:42:50Z</time>
      </trkpt>
      <trkpt lat="41.577014000" lon="2.524910000">
        <ele>48.30</ele>
        <time>2014-02-16T08:42:58Z</time>
      </trkpt>
      <trkpt lat="41.577130000" lon="2.524287000">
        <ele>44.00</ele>
        <time>2014-02-16T08:43:12Z</time>
      </trkpt>
      <trkpt lat="41.577053000" lon="2.523779000">
        <ele>44.10</ele>
        <time>2014-02-16T08:43:28Z</time>
      </trkpt>
      <trkpt lat="41.577050000" lon="2.523119000">
        <ele>45.50</ele>
        <time>2014-02-16T08:43:49Z</time>
      </trkpt>
      <trkpt lat="41.577433000" lon="2.522268000">
        <ele>48.10</ele>
        <time>2014-02-16T08:44:24Z</time>
      </trkpt>
      <trkpt lat="41.577877000" lon="2.521795000">
        <ele>51.00</ele>
        <time>2014-02-16T08:44:48Z</time>
      </trkpt>
      <trkpt lat="41.578527000" lon="2.521713000">
        <ele>54.00</ele>
        <time>2014-02-16T08:45:26Z</time>
      </trkpt>
      <trkpt lat="41.578132000" lon="2.521750000">
        <ele>52.60</ele>
        <time>2014-02-16T08:46:00Z</time>
      </trkpt>
      <trkpt lat="41.579357000" lon="2.521558000">
        <ele>55.70</ele>
        <time>2014-02-16T08:47:15Z</time>
      </trkpt>
      <trkpt lat="41.581658000" lon="2.520812000">
        <ele>65.60</ele>
        <time>2014-02-16T08:48:50Z</time>
      </trkpt>
      <trkpt lat="41.581837000" lon="2.520365000">
        <ele>67.10</ele>
        <time>2014-02-16T08:49:06Z</time>
      </trkpt>
      <trkpt lat="41.582150000" lon="2.520063000">
        <ele>68.80</ele>
        <time>2014-02-16T08:49:23Z</time>
      </trkpt>
      <trkpt lat="41.582530000" lon="2.519869000">
        <ele>73.60</ele>
        <time>2014-02-16T08:49:45Z</time>
      </trkpt>
      <trkpt lat="41.582940000" lon="2.519258000">
        <ele>79.90</ele>
        <time>2014-02-16T08:50:17Z</time>
      </trkpt>
      <trkpt lat="41.583158000" lon="2.518700000">
        <ele>85.70</ele>
        <time>2014-02-16T08:50:46Z</time>
      </trkpt>
      <trkpt lat="41.583225000" lon="2.518687000">
        <ele>86.50</ele>
        <time>2014-02-16T08:50:50Z</time>
      </trkpt>
      <trkpt lat="41.583378000" lon="2.519412000">
        <ele>91.10</ele>
        <time>2014-02-16T08:51:23Z</time>
      </trkpt>
      <trkpt lat="41.583763000" lon="2.519639000">
        <ele>95.80</ele>
        <time>2014-02-16T08:51:47Z</time>
      </trkpt>
      <trkpt lat="41.584037000" lon="2.519622000">
        <ele>96.30</ele>
        <time>2014-02-16T08:52:02Z</time>
      </trkpt>
      <trkpt lat="41.584377000" lon="2.519434000">
        <ele>99.30</ele>
        <time>2014-02-16T08:52:21Z</time>
      </trkpt>
      <trkpt lat="41.584639000" lon="2.519100000">
        <ele>103.90</ele>
        <time>2014-02-16T08:52:42Z</time>
      </trkpt>
      <trkpt lat="41.584788000" lon="2.518758000">
        <ele>106.90</ele>
        <time>2014-02-16T08:52:59Z</time>
      </trkpt>
      <trkpt lat="41.584993000" lon="2.517914000">
        <ele>115.30</ele>
        <time>2014-02-16T08:53:40Z</time>
      </trkpt>
      <trkpt lat="41.585640000" lon="2.517134000">
        <ele>124.30</ele>
        <time>2014-02-16T08:54:35Z</time>
      </trkpt>
      <trkpt lat="41.585729000" lon="2.516808000">
        <ele>126.00</ele>
        <time>2014-02-16T08:54:51Z</time>
      </trkpt>
      <trkpt lat="41.585715000" lon="2.516037000">
        <ele>130.30</ele>
        <time>2014-02-16T08:55:22Z</time>
      </trkpt>
      <trkpt lat="41.585784000" lon="2.515960000">
        <ele>131.60</ele>
        <time>2014-02-16T08:55:28Z</time>
      </trkpt>
      <trkpt lat="41.586145000" lon="2.516182000">
        <ele>134.70</ele>
        <time>2014-02-16T08:55:54Z</time>
      </trkpt>
      <trkpt lat="41.586575000" lon="2.515895000">
        <ele>136.10</ele>
        <time>2014-02-16T08:56:18Z</time>
      </trkpt>
      <trkpt lat="41.587227000" lon="2.515933000">
        <ele>141.90</ele>
        <time>2014-02-16T08:56:58Z</time>
      </trkpt>
      <trkpt lat="41.587495000" lon="2.516913000">
        <ele>153.90</ele>
        <time>2014-02-16T08:57:55Z</time>
      </trkpt>
      <trkpt lat="41.588307000" lon="2.517718000">
        <ele>162.50</ele>
        <time>2014-02-16T08:58:57Z</time>
      </trkpt>
      <trkpt lat="41.588522000" lon="2.517794000">
        <ele>163.90</ele>
        <time>2014-02-16T08:59:11Z</time>
      </trkpt>
      <trkpt lat="41.588742000" lon="2.517705000">
        <ele>165.40</ele>
        <time>2014-02-16T08:59:25Z</time>
      </trkpt>
      <trkpt lat="41.589034000" lon="2.517173000">
        <ele>170.10</ele>
        <time>2014-02-16T08:59:56Z</time>
      </trkpt>
      <trkpt lat="41.589022000" lon="2.516952000">
        <ele>172.30</ele>
        <time>2014-02-16T09:00:08Z</time>
      </trkpt>
      <trkpt lat="41.588917000" lon="2.516702000">
        <ele>175.00</ele>
        <time>2014-02-16T09:00:23Z</time>
      </trkpt>
      <trkpt lat="41.589025000" lon="2.516472000">
        <ele>177.40</ele>
        <time>2014-02-16T09:00:42Z</time>
      </trkpt>
      <trkpt lat="41.589069000" lon="2.515985000">
        <ele>180.70</ele>
        <time>2014-02-16T09:01:07Z</time>
      </trkpt>
      <trkpt lat="41.589137000" lon="2.515940000">
        <ele>182.00</ele>
        <time>2014-02-16T09:01:14Z</time>
      </trkpt>
      <trkpt lat="41.589172000" lon="2.515757000">
        <ele>182.70</ele>
        <time>2014-02-16T09:01:24Z</time>
      </trkpt>
      <trkpt lat="41.589070000" lon="2.514050000">
        <ele>173.90</ele>
        <time>2014-02-16T09:02:10Z</time>
      </trkpt>
      <trkpt lat="41.589122000" lon="2.513897000">
        <ele>172.20</ele>
        <time>2014-02-16T09:02:16Z</time>
      </trkpt>
      <trkpt lat="41.589450000" lon="2.514393000">
        <ele>171.20</ele>
        <time>2014-02-16T09:02:46Z</time>
      </trkpt>
      <trkpt lat="41.589883000" lon="2.514593000">
        <ele>176.80</ele>
        <time>2014-02-16T09:03:20Z</time>
      </trkpt>
      <trkpt lat="41.590022000" lon="2.514574000">
        <ele>179.40</ele>
        <time>2014-02-16T09:03:32Z</time>
      </trkpt>
      <trkpt lat="41.590173000" lon="2.514435000">
        <ele>181.80</ele>
        <time>2014-02-16T09:03:46Z</time>
      </trkpt>
      <trkpt lat="41.590412000" lon="2.514012000">
        <ele>186.70</ele>
        <time>2014-02-16T09:04:16Z</time>
      </trkpt>
      <trkpt lat="41.590488000" lon="2.513745000">
        <ele>191.00</ele>
        <time>2014-02-16T09:04:37Z</time>
      </trkpt>
      <trkpt lat="41.590310000" lon="2.513944000">
        <ele>194.70</ele>
        <time>2014-02-16T09:05:02Z</time>
      </trkpt>
      <trkpt lat="41.590052000" lon="2.513999000">
        <ele>196.30</ele>
        <time>2014-02-16T09:05:25Z</time>
      </trkpt>
      <trkpt lat="41.590148000" lon="2.513797000">
        <ele>198.90</ele>
        <time>2014-02-16T09:05:45Z</time>
      </trkpt>
      <trkpt lat="41.590070000" lon="2.513684000">
        <ele>200.70</ele>
        <time>2014-02-16T09:05:55Z</time>
      </trkpt>
      <trkpt lat="41.590087000" lon="2.513530000">
        <ele>206.20</ele>
        <time>2014-02-16T09:06:21Z</time>
      </trkpt>
      <trkpt lat="41.589912000" lon="2.513394000">
        <ele>205.30</ele>
        <time>2014-02-16T09:06:32Z</time>
      </trkpt>
      <trkpt lat="41.589828000" lon="2.513218000">
        <ele>204.90</ele>
        <time>2014-02-16T09:06:38Z</time>
      </trkpt>
      <trkpt lat="41.589857000" lon="2.512585000">
        <ele>204.50</ele>
        <time>2014-02-16T09:06:53Z</time>
      </trkpt>
      <trkpt lat="41.589765000" lon="2.512355000">
        <ele>205.10</ele>
        <time>2014-02-16T09:06:58Z</time>
      </trkpt>
      <trkpt lat="41.589150000" lon="2.512145000">
        <ele>202.70</ele>
        <time>2014-02-16T09:07:10Z</time>
      </trkpt>
      <trkpt lat="41.588537000" lon="2.512195000">
        <ele>200.00</ele>
        <time>2014-02-16T09:07:21Z</time>
      </trkpt>
      <trkpt lat="41.588300000" lon="2.512025000">
        <ele>199.50</ele>
        <time>2014-02-16T09:07:27Z</time>
      </trkpt>
      <trkpt lat="41.588268000" lon="2.511610000">
        <ele>199.60</ele>
        <time>2014-02-16T09:07:35Z</time>
      </trkpt>
      <trkpt lat="41.588367000" lon="2.510667000">
        <ele>200.30</ele>
        <time>2014-02-16T09:07:54Z</time>
      </trkpt>
      <trkpt lat="41.588308000" lon="2.510404000">
        <ele>200.20</ele>
        <time>2014-02-16T09:07:59Z</time>
      </trkpt>
      <trkpt lat="41.588105000" lon="2.510198000">
        <ele>199.80</ele>
        <time>2014-02-16T09:08:05Z</time>
      </trkpt>
      <trkpt lat="41.587952000" lon="2.510252000">
        <ele>199.90</ele>
        <time>2014-02-16T09:08:09Z</time>
      </trkpt>
      <trkpt lat="41.587585000" lon="2.510924000">
        <ele>199.90</ele>
        <time>2014-02-16T09:08:26Z</time>
      </trkpt>
      <trkpt lat="41.587049000" lon="2.511243000">
        <ele>200.20</ele>
        <time>2014-02-16T09:08:45Z</time>
      </trkpt>
      <trkpt lat="41.586892000" lon="2.511412000">
        <ele>201.00</ele>
        <time>2014-02-16T09:08:53Z</time>
      </trkpt>
      <trkpt lat="41.586775000" lon="2.511767000">
        <ele>201.10</ele>
        <time>2014-02-16T09:09:03Z</time>
      </trkpt>
      <trkpt lat="41.586552000" lon="2.511947000">
        <ele>202.50</ele>
        <time>2014-02-16T09:09:16Z</time>
      </trkpt>
      <trkpt lat="41.586739000" lon="2.511368000">
        <ele>208.60</ele>
        <time>2014-02-16T09:09:55Z</time>
      </trkpt>
      <trkpt lat="41.586797000" lon="2.510820000">
        <ele>214.60</ele>
        <time>2014-02-16T09:10:30Z</time>
      </trkpt>
      <trkpt lat="41.586702000" lon="2.510825000">
        <ele>215.20</ele>
        <time>2014-02-16T09:10:39Z</time>
      </trkpt>
      <trkpt lat="41.586625000" lon="2.511058000">
        <ele>218.00</ele>
        <time>2014-02-16T09:10:56Z</time>
      </trkpt>
      <trkpt lat="41.586419000" lon="2.511265000">
        <ele>221.00</ele>
        <time>2014-02-16T09:11:16Z</time>
      </trkpt>
      <trkpt lat="41.586337000" lon="2.511203000">
        <ele>220.90</ele>
        <time>2014-02-16T09:11:23Z</time>
      </trkpt>
      <trkpt lat="41.586497000" lon="2.510807000">
        <ele>225.30</ele>
        <time>2014-02-16T09:11:47Z</time>
      </trkpt>
      <trkpt lat="41.586455000" lon="2.510724000">
        <ele>225.70</ele>
        <time>2014-02-16T09:11:53Z</time>
      </trkpt>
      <trkpt lat="41.586270000" lon="2.510860000">
        <ele>229.00</ele>
        <time>2014-02-16T09:12:10Z</time>
      </trkpt>
      <trkpt lat="41.586225000" lon="2.510822000">
        <ele>229.00</ele>
        <time>2014-02-16T09:12:14Z</time>
      </trkpt>
      <trkpt lat="41.586238000" lon="2.510130000">
        <ele>234.50</ele>
        <time>2014-02-16T09:12:51Z</time>
      </trkpt>
      <trkpt lat="41.586495000" lon="2.509818000">
        <ele>235.60</ele>
        <time>2014-02-16T09:13:09Z</time>
      </trkpt>
      <trkpt lat="41.586825000" lon="2.509654000">
        <ele>237.90</ele>
        <time>2014-02-16T09:13:29Z</time>
      </trkpt>
      <trkpt lat="41.587482000" lon="2.508970000">
        <ele>242.10</ele>
        <time>2014-02-16T09:14:18Z</time>
      </trkpt>
      <trkpt lat="41.587778000" lon="2.508453000">
        <ele>245.50</ele>
        <time>2014-02-16T09:14:46Z</time>
      </trkpt>
      <trkpt lat="41.588332000" lon="2.507923000">
        <ele>251.10</ele>
        <time>2014-02-16T09:15:28Z</time>
      </trkpt>
      <trkpt lat="41.588872000" lon="2.507844000">
        <ele>255.90</ele>
        <time>2014-02-16T09:16:06Z</time>
      </trkpt>
      <trkpt lat="41.589338000" lon="2.508260000">
        <ele>262.80</ele>
        <time>2014-02-16T09:16:43Z</time>
      </trkpt>
      <trkpt lat="41.589615000" lon="2.508377000">
        <ele>266.60</ele>
        <time>2014-02-16T09:17:03Z</time>
      </trkpt>
      <trkpt lat="41.589837000" lon="2.508304000">
        <ele>268.40</ele>
        <time>2014-02-16T09:17:18Z</time>
      </trkpt>
      <trkpt lat="41.589930000" lon="2.508125000">
        <ele>268.40</ele>
        <time>2014-02-16T09:17:29Z</time>
      </trkpt>
      <trkpt lat="41.590112000" lon="2.506112000">
        <ele>283.90</ele>
        <time>2014-02-16T09:19:09Z</time>
      </trkpt>
      <trkpt lat="41.590474000" lon="2.505430000">
        <ele>291.40</ele>
        <time>2014-02-16T09:19:53Z</time>
      </trkpt>
      <trkpt lat="41.590690000" lon="2.504677000">
        <ele>299.60</ele>
        <time>2014-02-16T09:20:37Z</time>
      </trkpt>
      <trkpt lat="41.591123000" lon="2.504407000">
        <ele>308.70</ele>
        <time>2014-02-16T09:21:17Z</time>
      </trkpt>
      <trkpt lat="41.591372000" lon="2.504024000">
        <ele>314.00</ele>
        <time>2014-02-16T09:21:45Z</time>
      </trkpt>
      <trkpt lat="41.591612000" lon="2.503365000">
        <ele>321.40</ele>
        <time>2014-02-16T09:22:30Z</time>
      </trkpt>
      <trkpt lat="41.591573000" lon="2.503252000">
        <ele>323.00</ele>
        <time>2014-02-16T09:22:37Z</time>
      </trkpt>
      <trkpt lat="41.591315000" lon="2.503373000">
        <ele>326.60</ele>
        <time>2014-02-16T09:22:59Z</time>
      </trkpt>
      <trkpt lat="41.590690000" lon="2.502878000">
        <ele>333.60</ele>
        <time>2014-02-16T09:23:48Z</time>
      </trkpt>
      <trkpt lat="41.590543000" lon="2.502628000">
        <ele>335.60</ele>
        <time>2014-02-16T09:24:03Z</time>
      </trkpt>
      <trkpt lat="41.590497000" lon="2.502368000">
        <ele>336.30</ele>
        <time>2014-02-16T09:24:19Z</time>
      </trkpt>
      <trkpt lat="41.590355000" lon="2.502150000">
        <ele>338.40</ele>
        <time>2014-02-16T09:24:35Z</time>
      </trkpt>
      <trkpt lat="41.590400000" lon="2.501912000">
        <ele>340.60</ele>
        <time>2014-02-16T09:24:50Z</time>
      </trkpt>
      <trkpt lat="41.590370000" lon="2.501642000">
        <ele>344.10</ele>
        <time>2014-02-16T09:25:06Z</time>
      </trkpt>
      <trkpt lat="41.590688000" lon="2.501234000">
        <ele>349.00</ele>
        <time>2014-02-16T09:25:41Z</time>
      </trkpt>
      <trkpt lat="41.590850000" lon="2.501180000">
        <ele>350.50</ele>
        <time>2014-02-16T09:25:56Z</time>
      </trkpt>
      <trkpt lat="41.591013000" lon="2.500963000">
        <ele>354.10</ele>
        <time>2014-02-16T09:26:15Z</time>
      </trkpt>
      <trkpt lat="41.591287000" lon="2.500793000">
        <ele>359.00</ele>
        <time>2014-02-16T09:26:40Z</time>
      </trkpt>
      <trkpt lat="41.591454000" lon="2.500525000">
        <ele>362.70</ele>
        <time>2014-02-16T09:27:02Z</time>
      </trkpt>
      <trkpt lat="41.591548000" lon="2.500165000">
        <ele>362.70</ele>
        <time>2014-02-16T09:27:29Z</time>
      </trkpt>
      <trkpt lat="41.591672000" lon="2.500020000">
        <ele>370.20</ele>
        <time>2014-02-16T09:27:47Z</time>
      </trkpt>
      <trkpt lat="41.591702000" lon="2.499525000">
        <ele>373.50</ele>
        <time>2014-02-16T09:28:16Z</time>
      </trkpt>
      <trkpt lat="41.592172000" lon="2.499153000">
        <ele>378.10</ele>
        <time>2014-02-16T09:28:55Z</time>
      </trkpt>
      <trkpt lat="41.592434000" lon="2.499040000">
        <ele>376.80</ele>
        <time>2014-02-16T09:29:06Z</time>
      </trkpt>
      <trkpt lat="41.592827000" lon="2.498644000">
        <ele>383.10</ele>
        <time>2014-02-16T09:29:49Z</time>
      </trkpt>
      <trkpt lat="41.593322000" lon="2.497642000">
        <ele>395.70</ele>
        <time>2014-02-16T09:31:37Z</time>
      </trkpt>
      <trkpt lat="41.593425000" lon="2.497202000">
        <ele>401.80</ele>
        <time>2014-02-16T09:32:07Z</time>
      </trkpt>
      <trkpt lat="41.593494000" lon="2.496402000">
        <ele>411.40</ele>
        <time>2014-02-16T09:32:58Z</time>
      </trkpt>
      <trkpt lat="41.593345000" lon="2.495723000">
        <ele>418.10</ele>
        <time>2014-02-16T09:33:40Z</time>
      </trkpt>
      <trkpt lat="41.593395000" lon="2.495693000">
        <ele>418.70</ele>
        <time>2014-02-16T09:33:47Z</time>
      </trkpt>
      <trkpt lat="41.593630000" lon="2.495990000">
        <ele>419.50</ele>
        <time>2014-02-16T09:34:04Z</time>
      </trkpt>
      <trkpt lat="41.593913000" lon="2.495923000">
        <ele>421.20</ele>
        <time>2014-02-16T09:34:22Z</time>
      </trkpt>
      <trkpt lat="41.594100000" lon="2.495748000">
        <ele>424.20</ele>
        <time>2014-02-16T09:35:02Z</time>
      </trkpt>
      <trkpt lat="41.594184000" lon="2.495790000">
        <ele>424.30</ele>
        <time>2014-02-16T09:35:10Z</time>
      </trkpt>
      <trkpt lat="41.594370000" lon="2.496238000">
        <ele>421.50</ele>
        <time>2014-02-16T09:35:34Z</time>
      </trkpt>
      <trkpt lat="41.594672000" lon="2.496707000">
        <ele>418.10</ele>
        <time>2014-02-16T09:35:53Z</time>
      </trkpt>
      <trkpt lat="41.594625000" lon="2.497070000">
        <ele>415.30</ele>
        <time>2014-02-16T09:36:06Z</time>
      </trkpt>
      <trkpt lat="41.594695000" lon="2.497247000">
        <ele>414.30</ele>
        <time>2014-02-16T09:36:12Z</time>
      </trkpt>
      <trkpt lat="41.594463000" lon="2.497497000">
        <ele>410.30</ele>
        <time>2014-02-16T09:36:24Z</time>
      </trkpt>
      <trkpt lat="41.594113000" lon="2.497600000">
        <ele>403.70</ele>
        <time>2014-02-16T09:36:45Z</time>
      </trkpt>
      <trkpt lat="41.593255000" lon="2.498905000">
        <ele>382.60</ele>
        <time>2014-02-16T09:37:39Z</time>
      </trkpt>
      <trkpt lat="41.593409000" lon="2.499132000">
        <ele>379.40</ele>
        <time>2014-02-16T09:37:51Z</time>
      </trkpt>
      <trkpt lat="41.593163000" lon="2.499353000">
        <ele>373.50</ele>
        <time>2014-02-16T09:38:39Z</time>
      </trkpt>
      <trkpt lat="41.592898000" lon="2.498628000">
        <ele>383.80</ele>
        <time>2014-02-16T09:39:58Z</time>
      </trkpt>
      <trkpt lat="41.592892000" lon="2.497949000">
        <ele>389.20</ele>
        <time>2014-02-16T09:40:41Z</time>
      </trkpt>
      <trkpt lat="41.592618000" lon="2.497580000">
        <ele>397.00</ele>
        <time>2014-02-16T09:41:14Z</time>
      </trkpt>
      <trkpt lat="41.592503000" lon="2.497295000">
        <ele>398.10</ele>
        <time>2014-02-16T09:41:30Z</time>
      </trkpt>
      <trkpt lat="41.592467000" lon="2.496867000">
        <ele>399.90</ele>
        <time>2014-02-16T09:41:50Z</time>
      </trkpt>
      <trkpt lat="41.591757000" lon="2.496900000">
        <ele>402.50</ele>
        <time>2014-02-16T09:42:27Z</time>
      </trkpt>
      <trkpt lat="41.591597000" lon="2.496750000">
        <ele>402.90</ele>
        <time>2014-02-16T09:42:35Z</time>
      </trkpt>
      <trkpt lat="41.591345000" lon="2.496684000">
        <ele>401.70</ele>
        <time>2014-02-16T09:42:42Z</time>
      </trkpt>
      <trkpt lat="41.591192000" lon="2.496447000">
        <ele>398.50</ele>
        <time>2014-02-16T09:42:51Z</time>
      </trkpt>
      <trkpt lat="41.591242000" lon="2.496238000">
        <ele>397.30</ele>
        <time>2014-02-16T09:42:58Z</time>
      </trkpt>
      <trkpt lat="41.591137000" lon="2.495810000">
        <ele>393.90</ele>
        <time>2014-02-16T09:43:09Z</time>
      </trkpt>
      <trkpt lat="41.591224000" lon="2.494240000">
        <ele>388.90</ele>
        <time>2014-02-16T09:43:43Z</time>
      </trkpt>
      <trkpt lat="41.591147000" lon="2.493427000">
        <ele>387.40</ele>
        <time>2014-02-16T09:44:07Z</time>
      </trkpt>
      <trkpt lat="41.591744000" lon="2.493053000">
        <ele>394.50</ele>
        <time>2014-02-16T09:44:46Z</time>
      </trkpt>
      <trkpt lat="41.591852000" lon="2.492820000">
        <ele>394.80</ele>
        <time>2014-02-16T09:49:26Z</time>
      </trkpt>
      <trkpt lat="41.591797000" lon="2.492808000">
        <ele>395.20</ele>
        <time>2014-02-16T09:50:25Z</time>
      </trkpt>
      <trkpt lat="41.591854000" lon="2.492785000">
        <ele>394.30</ele>
        <time>2014-02-16T09:51:20Z</time>
      </trkpt>
      <trkpt lat="41.591829000" lon="2.492825000">
        <ele>395.00</ele>
        <time>2014-02-16T09:51:57Z</time>
      </trkpt>
      <trkpt lat="41.591893000" lon="2.492850000">
        <ele>395.10</ele>
        <time>2014-02-16T09:52:34Z</time>
      </trkpt>
      <trkpt lat="41.591797000" lon="2.492893000">
        <ele>394.40</ele>
        <time>2014-02-16T09:55:13Z</time>
      </trkpt>
      <trkpt lat="41.591857000" lon="2.492815000">
        <ele>394.70</ele>
        <time>2014-02-16T09:56:33Z</time>
      </trkpt>
      <trkpt lat="41.591728000" lon="2.493055000">
        <ele>394.30</ele>
        <time>2014-02-16T09:58:49Z</time>
      </trkpt>
      <trkpt lat="41.591757000" lon="2.493010000">
        <ele>395.00</ele>
        <time>2014-02-16T09:59:01Z</time>
      </trkpt>
      <trkpt lat="41.591783000" lon="2.493122000">
        <ele>394.70</ele>
        <time>2014-02-16T09:59:21Z</time>
      </trkpt>
      <trkpt lat="41.591944000" lon="2.493120000">
        <ele>395.60</ele>
        <time>2014-02-16T09:59:33Z</time>
      </trkpt>
      <trkpt lat="41.592100000" lon="2.493340000">
        <ele>396.20</ele>
        <time>2014-02-16T09:59:52Z</time>
      </trkpt>
      <trkpt lat="41.592050000" lon="2.493165000">
        <ele>396.80</ele>
        <time>2014-02-16T10:00:09Z</time>
      </trkpt>
      <trkpt lat="41.592337000" lon="2.493957000">
        <ele>404.60</ele>
        <time>2014-02-16T10:01:00Z</time>
      </trkpt>
      <trkpt lat="41.592549000" lon="2.494778000">
        <ele>412.30</ele>
        <time>2014-02-16T10:01:48Z</time>
      </trkpt>
      <trkpt lat="41.592593000" lon="2.495249000">
        <ele>414.20</ele>
        <time>2014-02-16T10:02:09Z</time>
      </trkpt>
      <trkpt lat="41.592498000" lon="2.495693000">
        <ele>412.80</ele>
        <time>2014-02-16T10:02:22Z</time>
      </trkpt>
      <trkpt lat="41.592545000" lon="2.495755000">
        <ele>411.90</ele>
        <time>2014-02-16T10:02:26Z</time>
      </trkpt>
      <trkpt lat="41.592730000" lon="2.495413000">
        <ele>415.90</ele>
        <time>2014-02-16T10:02:49Z</time>
      </trkpt>
      <trkpt lat="41.593009000" lon="2.495422000">
        <ele>419.70</ele>
        <time>2014-02-16T10:03:12Z</time>
      </trkpt>
      <trkpt lat="41.593307000" lon="2.495582000">
        <ele>420.30</ele>
        <time>2014-02-16T10:03:32Z</time>
      </trkpt>
      <trkpt lat="41.593555000" lon="2.495882000">
        <ele>419.80</ele>
        <time>2014-02-16T10:03:44Z</time>
      </trkpt>
      <trkpt lat="41.594042000" lon="2.496908000">
        <ele>416.60</ele>
        <time>2014-02-16T10:04:16Z</time>
      </trkpt>
      <trkpt lat="41.594028000" lon="2.497123000">
        <ele>415.00</ele>
        <time>2014-02-16T10:04:23Z</time>
      </trkpt>
      <trkpt lat="41.593443000" lon="2.497234000">
        <ele>405.50</ele>
        <time>2014-02-16T10:04:44Z</time>
      </trkpt>
      <trkpt lat="41.592949000" lon="2.498517000">
        <ele>390.90</ele>
        <time>2014-02-16T10:05:09Z</time>
      </trkpt>
      <trkpt lat="41.592835000" lon="2.498658000">
        <ele>387.90</ele>
        <time>2014-02-16T10:05:13Z</time>
      </trkpt>
      <trkpt lat="41.591859000" lon="2.499290000">
        <ele>379.80</ele>
        <time>2014-02-16T10:05:55Z</time>
      </trkpt>
      <trkpt lat="41.591772000" lon="2.499772000">
        <ele>375.30</ele>
        <time>2014-02-16T10:06:12Z</time>
      </trkpt>
      <trkpt lat="41.591608000" lon="2.500018000">
        <ele>371.50</ele>
        <time>2014-02-16T10:06:21Z</time>
      </trkpt>
      <trkpt lat="41.591539000" lon="2.500325000">
        <ele>367.90</ele>
        <time>2014-02-16T10:06:29Z</time>
      </trkpt>
      <trkpt lat="41.591380000" lon="2.500632000">
        <ele>365.50</ele>
        <time>2014-02-16T10:06:37Z</time>
      </trkpt>
      <trkpt lat="41.590997000" lon="2.501007000">
        <ele>357.50</ele>
        <time>2014-02-16T10:06:54Z</time>
      </trkpt>
      <trkpt lat="41.590822000" lon="2.501050000">
        <ele>354.50</ele>
        <time>2014-02-16T10:07:01Z</time>
      </trkpt>
      <trkpt lat="41.590265000" lon="2.501615000">
        <ele>345.10</ele>
        <time>2014-02-16T10:07:26Z</time>
      </trkpt>
      <trkpt lat="41.590075000" lon="2.501625000">
        <ele>342.00</ele>
        <time>2014-02-16T10:07:35Z</time>
      </trkpt>
      <trkpt lat="41.589645000" lon="2.501865000">
        <ele>330.60</ele>
        <time>2014-02-16T10:08:41Z</time>
      </trkpt>
      <trkpt lat="41.589682000" lon="2.501805000">
        <ele>329.50</ele>
        <time>2014-02-16T10:08:53Z</time>
      </trkpt>
      <trkpt lat="41.589508000" lon="2.501642000">
        <ele>329.70</ele>
        <time>2014-02-16T10:09:09Z</time>
      </trkpt>
      <trkpt lat="41.589375000" lon="2.501023000">
        <ele>322.90</ele>
        <time>2014-02-16T10:09:48Z</time>
      </trkpt>
      <trkpt lat="41.589220000" lon="2.501312000">
        <ele>318.50</ele>
        <time>2014-02-16T10:09:58Z</time>
      </trkpt>
      <trkpt lat="41.588694000" lon="2.501730000">
        <ele>313.70</ele>
        <time>2014-02-16T10:10:12Z</time>
      </trkpt>
      <trkpt lat="41.588144000" lon="2.502503000">
        <ele>302.60</ele>
        <time>2014-02-16T10:10:29Z</time>
      </trkpt>
      <trkpt lat="41.587967000" lon="2.502614000">
        <ele>298.90</ele>
        <time>2014-02-16T10:10:34Z</time>
      </trkpt>
      <trkpt lat="41.587914000" lon="2.502930000">
        <ele>293.80</ele>
        <time>2014-02-16T10:10:43Z</time>
      </trkpt>
      <trkpt lat="41.588085000" lon="2.503172000">
        <ele>289.30</ele>
        <time>2014-02-16T10:10:53Z</time>
      </trkpt>
      <trkpt lat="41.587999000" lon="2.503583000">
        <ele>284.70</ele>
        <time>2014-02-16T10:11:02Z</time>
      </trkpt>
      <trkpt lat="41.587830000" lon="2.503915000">
        <ele>280.10</ele>
        <time>2014-02-16T10:11:09Z</time>
      </trkpt>
      <trkpt lat="41.587645000" lon="2.504090000">
        <ele>278.00</ele>
        <time>2014-02-16T10:11:24Z</time>
      </trkpt>
      <trkpt lat="41.587013000" lon="2.504358000">
        <ele>271.10</ele>
        <time>2014-02-16T10:11:50Z</time>
      </trkpt>
      <trkpt lat="41.586602000" lon="2.504737000">
        <ele>264.00</ele>
        <time>2014-02-16T10:12:04Z</time>
      </trkpt>
      <trkpt lat="41.586518000" lon="2.504895000">
        <ele>260.40</ele>
        <time>2014-02-16T10:12:09Z</time>
      </trkpt>
      <trkpt lat="41.586527000" lon="2.505017000">
        <ele>257.40</ele>
        <time>2014-02-16T10:12:13Z</time>
      </trkpt>
      <trkpt lat="41.586242000" lon="2.505410000">
        <ele>252.00</ele>
        <time>2014-02-16T10:12:24Z</time>
      </trkpt>
      <trkpt lat="41.585680000" lon="2.505735000">
        <ele>242.90</ele>
        <time>2014-02-16T10:12:44Z</time>
      </trkpt>
      <trkpt lat="41.585073000" lon="2.505685000">
        <ele>236.30</ele>
        <time>2014-02-16T10:12:59Z</time>
      </trkpt>
      <trkpt lat="41.584657000" lon="2.505412000">
        <ele>230.70</ele>
        <time>2014-02-16T10:13:09Z</time>
      </trkpt>
      <trkpt lat="41.584475000" lon="2.505378000">
        <ele>226.70</ele>
        <time>2014-02-16T10:13:14Z</time>
      </trkpt>
      <trkpt lat="41.584255000" lon="2.505175000">
        <ele>223.30</ele>
        <time>2014-02-16T10:13:20Z</time>
      </trkpt>
      <trkpt lat="41.584060000" lon="2.505160000">
        <ele>220.40</ele>
        <time>2014-02-16T10:13:26Z</time>
      </trkpt>
      <trkpt lat="41.583702000" lon="2.505369000">
        <ele>214.30</ele>
        <time>2014-02-16T10:13:35Z</time>
      </trkpt>
      <trkpt lat="41.583383000" lon="2.505187000">
        <ele>207.40</ele>
        <time>2014-02-16T10:13:47Z</time>
      </trkpt>
      <trkpt lat="41.583252000" lon="2.504812000">
        <ele>203.80</ele>
        <time>2014-02-16T10:13:55Z</time>
      </trkpt>
      <trkpt lat="41.583165000" lon="2.505002000">
        <ele>199.90</ele>
        <time>2014-02-16T10:14:03Z</time>
      </trkpt>
      <trkpt lat="41.583093000" lon="2.504767000">
        <ele>196.40</ele>
        <time>2014-02-16T10:14:12Z</time>
      </trkpt>
      <trkpt lat="41.582967000" lon="2.504922000">
        <ele>193.50</ele>
        <time>2014-02-16T10:14:19Z</time>
      </trkpt>
      <trkpt lat="41.582970000" lon="2.504567000">
        <ele>188.40</ele>
        <time>2014-02-16T10:14:32Z</time>
      </trkpt>
      <trkpt lat="41.583042000" lon="2.504362000">
        <ele>185.40</ele>
        <time>2014-02-16T10:14:38Z</time>
      </trkpt>
      <trkpt lat="41.582722000" lon="2.504140000">
        <ele>177.70</ele>
        <time>2014-02-16T10:14:53Z</time>
      </trkpt>
      <trkpt lat="41.581338000" lon="2.504905000">
        <ele>158.70</ele>
        <time>2014-02-16T10:15:48Z</time>
      </trkpt>
      <trkpt lat="41.581163000" lon="2.505092000">
        <ele>156.30</ele>
        <time>2014-02-16T10:15:54Z</time>
      </trkpt>
      <trkpt lat="41.580392000" lon="2.506457000">
        <ele>144.00</ele>
        <time>2014-02-16T10:16:27Z</time>
      </trkpt>
      <trkpt lat="41.580020000" lon="2.506682000">
        <ele>140.20</ele>
        <time>2014-02-16T10:16:36Z</time>
      </trkpt>
      <trkpt lat="41.579917000" lon="2.507014000">
        <ele>138.30</ele>
        <time>2014-02-16T10:16:44Z</time>
      </trkpt>
      <trkpt lat="41.579432000" lon="2.507778000">
        <ele>143.30</ele>
        <time>2014-02-16T10:17:16Z</time>
      </trkpt>
      <trkpt lat="41.579000000" lon="2.508250000">
        <ele>144.50</ele>
        <time>2014-02-16T10:17:30Z</time>
      </trkpt>
      <trkpt lat="41.578510000" lon="2.509055000">
        <ele>141.00</ele>
        <time>2014-02-16T10:17:45Z</time>
      </trkpt>
      <trkpt lat="41.578150000" lon="2.509407000">
        <ele>138.00</ele>
        <time>2014-02-16T10:17:52Z</time>
      </trkpt>
      <trkpt lat="41.577332000" lon="2.509722000">
        <ele>130.50</ele>
        <time>2014-02-16T10:18:04Z</time>
      </trkpt>
      <trkpt lat="41.577268000" lon="2.509818000">
        <ele>129.90</ele>
        <time>2014-02-16T10:18:06Z</time>
      </trkpt>
      <trkpt lat="41.577334000" lon="2.510130000">
        <ele>126.20</ele>
        <time>2014-02-16T10:18:12Z</time>
      </trkpt>
      <trkpt lat="41.578412000" lon="2.511500000">
        <ele>116.20</ele>
        <time>2014-02-16T10:18:49Z</time>
      </trkpt>
      <trkpt lat="41.578937000" lon="2.511995000">
        <ele>112.80</ele>
        <time>2014-02-16T10:19:17Z</time>
      </trkpt>
      <trkpt lat="41.579300000" lon="2.512630000">
        <ele>112.50</ele>
        <time>2014-02-16T10:19:35Z</time>
      </trkpt>
      <trkpt lat="41.579332000" lon="2.512904000">
        <ele>111.70</ele>
        <time>2014-02-16T10:19:41Z</time>
      </trkpt>
      <trkpt lat="41.579544000" lon="2.513537000">
        <ele>112.80</ele>
        <time>2014-02-16T10:19:59Z</time>
      </trkpt>
      <trkpt lat="41.578813000" lon="2.514119000">
        <ele>110.10</ele>
        <time>2014-02-16T10:20:16Z</time>
      </trkpt>
      <trkpt lat="41.577709000" lon="2.514680000">
        <ele>100.20</ele>
        <time>2014-02-16T10:20:30Z</time>
      </trkpt>
      <trkpt lat="41.575462000" lon="2.515358000">
        <ele>82.70</ele>
        <time>2014-02-16T10:20:55Z</time>
      </trkpt>
      <trkpt lat="41.575163000" lon="2.515585000">
        <ele>80.20</ele>
        <time>2014-02-16T10:21:01Z</time>
      </trkpt>
      <trkpt lat="41.575020000" lon="2.516032000">
        <ele>78.00</ele>
        <time>2014-02-16T10:21:10Z</time>
      </trkpt>
      <trkpt lat="41.575195000" lon="2.516585000">
        <ele>77.50</ele>
        <time>2014-02-16T10:21:26Z</time>
      </trkpt>
      <trkpt lat="41.575345000" lon="2.516690000">
        <ele>79.20</ele>
        <time>2014-02-16T10:21:35Z</time>
      </trkpt>
      <trkpt lat="41.576080000" lon="2.516790000">
        <ele>89.00</ele>
        <time>2014-02-16T10:22:17Z</time>
      </trkpt>
      <trkpt lat="41.576154000" lon="2.516937000">
        <ele>90.20</ele>
        <time>2014-02-16T10:22:25Z</time>
      </trkpt>
      <trkpt lat="41.576135000" lon="2.517109000">
        <ele>91.50</ele>
        <time>2014-02-16T10:22:33Z</time>
      </trkpt>
      <trkpt lat="41.575855000" lon="2.517753000">
        <ele>98.70</ele>
        <time>2014-02-16T10:23:04Z</time>
      </trkpt>
      <trkpt lat="41.575793000" lon="2.518068000">
        <ele>99.90</ele>
        <time>2014-02-16T10:23:14Z</time>
      </trkpt>
      <trkpt lat="41.575903000" lon="2.518578000">
        <ele>100.70</ele>
        <time>2014-02-16T10:23:29Z</time>
      </trkpt>
      <trkpt lat="41.576565000" lon="2.519760000">
        <ele>107.70</ele>
        <time>2014-02-16T10:24:15Z</time>
      </trkpt>
      <trkpt lat="41.576893000" lon="2.520575000">
        <ele>106.50</ele>
        <time>2014-02-16T10:24:39Z</time>
      </trkpt>
      <trkpt lat="41.577058000" lon="2.520790000">
        <ele>104.60</ele>
        <time>2014-02-16T10:24:44Z</time>
      </trkpt>
      <trkpt lat="41.577142000" lon="2.520807000">
        <ele>103.80</ele>
        <time>2014-02-16T10:24:46Z</time>
      </trkpt>
      <trkpt lat="41.577317000" lon="2.520672000">
        <ele>102.20</ele>
        <time>2014-02-16T10:24:50Z</time>
      </trkpt>
      <trkpt lat="41.577850000" lon="2.519883000">
        <ele>95.40</ele>
        <time>2014-02-16T10:25:00Z</time>
      </trkpt>
      <trkpt lat="41.578132000" lon="2.519669000">
        <ele>92.90</ele>
        <time>2014-02-16T10:25:04Z</time>
      </trkpt>
      <trkpt lat="41.578597000" lon="2.519473000">
        <ele>89.90</ele>
        <time>2014-02-16T10:25:10Z</time>
      </trkpt>
      <trkpt lat="41.579093000" lon="2.519537000">
        <ele>87.70</ele>
        <time>2014-02-16T10:25:17Z</time>
      </trkpt>
      <trkpt lat="41.579098000" lon="2.519660000">
        <ele>87.20</ele>
        <time>2014-02-16T10:25:19Z</time>
      </trkpt>
      <trkpt lat="41.578497000" lon="2.519905000">
        <ele>82.20</ele>
        <time>2014-02-16T10:25:27Z</time>
      </trkpt>
      <trkpt lat="41.578298000" lon="2.520118000">
        <ele>78.50</ele>
        <time>2014-02-16T10:25:30Z</time>
      </trkpt>
      <trkpt lat="41.577917000" lon="2.521083000">
        <ele>68.60</ele>
        <time>2014-02-16T10:25:39Z</time>
      </trkpt>
      <trkpt lat="41.577852000" lon="2.521588000">
        <ele>59.80</ele>
        <time>2014-02-16T10:25:47Z</time>
      </trkpt>
      <trkpt lat="41.577958000" lon="2.521783000">
        <ele>56.40</ele>
        <time>2014-02-16T10:25:53Z</time>
      </trkpt>
      <trkpt lat="41.579377000" lon="2.521640000">
        <ele>57.90</ele>
        <time>2014-02-16T10:26:46Z</time>
      </trkpt>
      <trkpt lat="41.581145000" lon="2.520975000">
        <ele>63.40</ele>
        <time>2014-02-16T10:27:48Z</time>
      </trkpt>
      <trkpt lat="41.581973000" lon="2.520845000">
        <ele>66.10</ele>
        <time>2014-02-16T10:28:19Z</time>
      </trkpt>
      <trkpt lat="41.582522000" lon="2.520842000">
        <ele>68.00</ele>
        <time>2014-02-16T10:28:40Z</time>
      </trkpt>
      <trkpt lat="41.582930000" lon="2.520712000">
        <ele>69.00</ele>
        <time>2014-02-16T10:28:56Z</time>
      </trkpt>
      <trkpt lat="41.583362000" lon="2.520455000">
        <ele>71.00</ele>
        <time>2014-02-16T10:29:14Z</time>
      </trkpt>
      <trkpt lat="41.584172000" lon="2.520255000">
        <ele>74.50</ele>
        <time>2014-02-16T10:29:47Z</time>
      </trkpt>
      <trkpt lat="41.584640000" lon="2.520317000">
        <ele>75.10</ele>
        <time>2014-02-16T10:30:05Z</time>
      </trkpt>
      <trkpt lat="41.585465000" lon="2.520708000">
        <ele>78.90</ele>
        <time>2014-02-16T10:30:39Z</time>
      </trkpt>
      <trkpt lat="41.586858000" lon="2.521673000">
        <ele>85.10</ele>
        <time>2014-02-16T10:31:37Z</time>
      </trkpt>
      <trkpt lat="41.588248000" lon="2.522205000">
        <ele>89.90</ele>
        <time>2014-02-16T10:32:29Z</time>
      </trkpt>
      <trkpt lat="41.589702000" lon="2.522905000">
        <ele>95.50</ele>
        <time>2014-02-16T10:33:26Z</time>
      </trkpt>
      <trkpt lat="41.590215000" lon="2.523302000">
        <ele>97.30</ele>
        <time>2014-02-16T10:33:50Z</time>
      </trkpt>
      <trkpt lat="41.590189000" lon="2.523512000">
        <ele>98.30</ele>
        <time>2014-02-16T10:34:01Z</time>
      </trkpt>
      <trkpt lat="41.589913000" lon="2.523597000">
        <ele>101.20</ele>
        <time>2014-02-16T10:34:18Z</time>
      </trkpt>
      <trkpt lat="41.589039000" lon="2.523277000">
        <ele>109.10</ele>
        <time>2014-02-16T10:35:08Z</time>
      </trkpt>
      <trkpt lat="41.588780000" lon="2.523494000">
        <ele>112.50</ele>
        <time>2014-02-16T10:35:25Z</time>
      </trkpt>
      <trkpt lat="41.588597000" lon="2.524303000">
        <ele>123.40</ele>
        <time>2014-02-16T10:36:09Z</time>
      </trkpt>
      <trkpt lat="41.588275000" lon="2.524632000">
        <ele>128.30</ele>
        <time>2014-02-16T10:36:38Z</time>
      </trkpt>
      <trkpt lat="41.587982000" lon="2.524285000">
        <ele>132.50</ele>
        <time>2014-02-16T10:37:03Z</time>
      </trkpt>
      <trkpt lat="41.587463000" lon="2.524137000">
        <ele>136.80</ele>
        <time>2014-02-16T10:37:37Z</time>
      </trkpt>
      <trkpt lat="41.587300000" lon="2.523825000">
        <ele>140.40</ele>
        <time>2014-02-16T10:37:57Z</time>
      </trkpt>
      <trkpt lat="41.587238000" lon="2.523834000">
        <ele>140.20</ele>
        <time>2014-02-16T10:38:02Z</time>
      </trkpt>
      <trkpt lat="41.587218000" lon="2.524630000">
        <ele>148.70</ele>
        <time>2014-02-16T10:38:47Z</time>
      </trkpt>
      <trkpt lat="41.587528000" lon="2.524998000">
        <ele>153.00</ele>
        <time>2014-02-16T10:39:14Z</time>
      </trkpt>
      <trkpt lat="41.587454000" lon="2.525364000">
        <ele>156.30</ele>
        <time>2014-02-16T10:39:32Z</time>
      </trkpt>
      <trkpt lat="41.587147000" lon="2.525725000">
        <ele>162.50</ele>
        <time>2014-02-16T10:39:57Z</time>
      </trkpt>
      <trkpt lat="41.587054000" lon="2.526022000">
        <ele>162.70</ele>
        <time>2014-02-16T10:40:09Z</time>
      </trkpt>
      <trkpt lat="41.587102000" lon="2.526134000">
        <ele>162.90</ele>
        <time>2014-02-16T10:40:14Z</time>
      </trkpt>
      <trkpt lat="41.587424000" lon="2.526267000">
        <ele>163.20</ele>
        <time>2014-02-16T10:40:28Z</time>
      </trkpt>
      <trkpt lat="41.587522000" lon="2.526433000">
        <ele>162.50</ele>
        <time>2014-02-16T10:40:37Z</time>
      </trkpt>
      <trkpt lat="41.587558000" lon="2.526728000">
        <ele>161.30</ele>
        <time>2014-02-16T10:40:46Z</time>
      </trkpt>
      <trkpt lat="41.587922000" lon="2.527185000">
        <ele>158.60</ele>
        <time>2014-02-16T10:41:00Z</time>
      </trkpt>
      <trkpt lat="41.588443000" lon="2.527558000">
        <ele>161.50</ele>
        <time>2014-02-16T10:41:24Z</time>
      </trkpt>
      <trkpt lat="41.588725000" lon="2.527604000">
        <ele>162.80</ele>
        <time>2014-02-16T10:41:38Z</time>
      </trkpt>
      <trkpt lat="41.589113000" lon="2.527302000">
        <ele>167.30</ele>
        <time>2014-02-16T10:42:05Z</time>
      </trkpt>
      <trkpt lat="41.589310000" lon="2.527245000">
        <ele>170.50</ele>
        <time>2014-02-16T10:42:17Z</time>
      </trkpt>
      <trkpt lat="41.589533000" lon="2.527347000">
        <ele>174.90</ele>
        <time>2014-02-16T10:42:32Z</time>
      </trkpt>
      <trkpt lat="41.590277000" lon="2.527323000">
        <ele>189.20</ele>
        <time>2014-02-16T10:43:25Z</time>
      </trkpt>
      <trkpt lat="41.590677000" lon="2.527068000">
        <ele>192.80</ele>
        <time>2014-02-16T10:43:52Z</time>
      </trkpt>
      <trkpt lat="41.591058000" lon="2.528040000">
        <ele>195.90</ele>
        <time>2014-02-16T10:44:31Z</time>
      </trkpt>
      <trkpt lat="41.591112000" lon="2.528352000">
        <ele>194.70</ele>
        <time>2014-02-16T10:44:38Z</time>
      </trkpt>
      <trkpt lat="41.591484000" lon="2.528587000">
        <ele>193.90</ele>
        <time>2014-02-16T10:44:52Z</time>
      </trkpt>
      <trkpt lat="41.592087000" lon="2.529553000">
        <ele>182.70</ele>
        <time>2014-02-16T10:45:14Z</time>
      </trkpt>
      <trkpt lat="41.591842000" lon="2.529892000">
        <ele>177.30</ele>
        <time>2014-02-16T10:45:21Z</time>
      </trkpt>
      <trkpt lat="41.591680000" lon="2.530353000">
        <ele>173.20</ele>
        <time>2014-02-16T10:45:29Z</time>
      </trkpt>
      <trkpt lat="41.591388000" lon="2.530648000">
        <ele>167.30</ele>
        <time>2014-02-16T10:45:39Z</time>
      </trkpt>
      <trkpt lat="41.591203000" lon="2.531025000">
        <ele>163.50</ele>
        <time>2014-02-16T10:45:59Z</time>
      </trkpt>
      <trkpt lat="41.591195000" lon="2.531268000">
        <ele>163.70</ele>
        <time>2014-02-16T10:46:21Z</time>
      </trkpt>
      <trkpt lat="41.590797000" lon="2.531733000">
        <ele>157.50</ele>
        <time>2014-02-16T10:46:40Z</time>
      </trkpt>
      <trkpt lat="41.590735000" lon="2.531979000">
        <ele>153.80</ele>
        <time>2014-02-16T10:46:48Z</time>
      </trkpt>
      <trkpt lat="41.590387000" lon="2.532570000">
        <ele>146.40</ele>
        <time>2014-02-16T10:47:06Z</time>
      </trkpt>
      <trkpt lat="41.590407000" lon="2.532773000">
        <ele>143.00</ele>
        <time>2014-02-16T10:47:14Z</time>
      </trkpt>
      <trkpt lat="41.590295000" lon="2.533113000">
        <ele>138.20</ele>
        <time>2014-02-16T10:47:22Z</time>
      </trkpt>
      <trkpt lat="41.590225000" lon="2.533730000">
        <ele>130.70</ele>
        <time>2014-02-16T10:47:39Z</time>
      </trkpt>
      <trkpt lat="41.589775000" lon="2.534655000">
        <ele>124.10</ele>
        <time>2014-02-16T10:48:20Z</time>
      </trkpt>
      <trkpt lat="41.589784000" lon="2.534910000">
        <ele>121.00</ele>
        <time>2014-02-16T10:48:30Z</time>
      </trkpt>
      <trkpt lat="41.589595000" lon="2.535190000">
        <ele>117.00</ele>
        <time>2014-02-16T10:48:40Z</time>
      </trkpt>
      <trkpt lat="41.589527000" lon="2.536042000">
        <ele>109.50</ele>
        <time>2014-02-16T10:48:57Z</time>
      </trkpt>
      <trkpt lat="41.589403000" lon="2.536572000">
        <ele>105.20</ele>
        <time>2014-02-16T10:49:08Z</time>
      </trkpt>
      <trkpt lat="41.589070000" lon="2.536972000">
        <ele>100.80</ele>
        <time>2014-02-16T10:49:21Z</time>
      </trkpt>
      <trkpt lat="41.588967000" lon="2.537012000">
        <ele>100.10</ele>
        <time>2014-02-16T10:49:26Z</time>
      </trkpt>
      <trkpt lat="41.588887000" lon="2.537617000">
        <ele>96.90</ele>
        <time>2014-02-16T10:49:40Z</time>
      </trkpt>
      <trkpt lat="41.589705000" lon="2.539279000">
        <ele>77.80</ele>
        <time>2014-02-16T10:50:04Z</time>
      </trkpt>
      <trkpt lat="41.589895000" lon="2.539503000">
        <ele>73.20</ele>
        <time>2014-02-16T10:50:08Z</time>
      </trkpt>
      <trkpt lat="41.589942000" lon="2.539832000">
        <ele>68.90</ele>
        <time>2014-02-16T10:50:13Z</time>
      </trkpt>
      <trkpt lat="41.590332000" lon="2.540490000">
        <ele>63.80</ele>
        <time>2014-02-16T10:50:24Z</time>
      </trkpt>
      <trkpt lat="41.590845000" lon="2.541155000">
        <ele>61.40</ele>
        <time>2014-02-16T10:50:36Z</time>
      </trkpt>
      <trkpt lat="41.591343000" lon="2.541982000">
        <ele>55.40</ele>
        <time>2014-02-16T10:50:49Z</time>
      </trkpt>
      <trkpt lat="41.591782000" lon="2.542310000">
        <ele>54.70</ele>
        <time>2014-02-16T10:50:59Z</time>
      </trkpt>
      <trkpt lat="41.592732000" lon="2.542410000">
        <ele>57.20</ele>
        <time>2014-02-16T10:51:56Z</time>
      </trkpt>
      <trkpt lat="41.597609000" lon="2.540422000">
        <ele>89.30</ele>
        <time>2014-02-16T10:55:48Z</time>
      </trkpt>
      <trkpt lat="41.598585000" lon="2.540870000">
        <ele>88.60</ele>
        <time>2014-02-16T10:56:19Z</time>
      </trkpt>
      <trkpt lat="41.598917000" lon="2.540913000">
        <ele>89.10</ele>
        <time>2014-02-16T10:56:30Z</time>
      </trkpt>
      <trkpt lat="41.599150000" lon="2.541179000">
        <ele>89.10</ele>
        <time>2014-02-16T10:56:41Z</time>
      </trkpt>
      <trkpt lat="41.599272000" lon="2.541222000">
        <ele>90.20</ele>
        <time>2014-02-16T10:56:46Z</time>
      </trkpt>
      <trkpt lat="41.599775000" lon="2.541070000">
        <ele>94.40</ele>
        <time>2014-02-16T10:57:07Z</time>
      </trkpt>
      <trkpt lat="41.600413000" lon="2.541510000">
        <ele>92.30</ele>
        <time>2014-02-16T10:57:23Z</time>
      </trkpt>
      <trkpt lat="41.601418000" lon="2.541320000">
        <ele>92.20</ele>
        <time>2014-02-16T10:58:01Z</time>
      </trkpt>
      <trkpt lat="41.601535000" lon="2.541212000">
        <ele>92.20</ele>
        <time>2014-02-16T10:58:06Z</time>
      </trkpt>
      <trkpt lat="41.602900000" lon="2.540810000">
        <ele>97.40</ele>
        <time>2014-02-16T10:59:02Z</time>
      </trkpt>
      <trkpt lat="41.604197000" lon="2.540072000">
        <ele>102.80</ele>
        <time>2014-02-16T11:00:33Z</time>
      </trkpt>
      <trkpt lat="41.604187000" lon="2.540005000">
        <ele>103.60</ele>
        <time>2014-02-16T11:03:12Z</time>
      </trkpt>
      <trkpt lat="41.604345000" lon="2.539857000">
        <ele>104.40</ele>
        <time>2014-02-16T11:03:45Z</time>
      </trkpt>
      <trkpt lat="41.604527000" lon="2.539367000">
        <ele>106.30</ele>
        <time>2014-02-16T11:04:06Z</time>
      </trkpt>
      <trkpt lat="41.604452000" lon="2.539293000">
        <ele>106.70</ele>
        <time>2014-02-16T11:05:21Z</time>
      </trkpt>
      <trkpt lat="41.604498000" lon="2.539270000">
        <ele>107.40</ele>
        <time>2014-02-16T11:05:43Z</time>
      </trkpt>
    </trkseg>
  </trk>
</gpx>
